KUKT/UKT METAR and TAF weather

Enter ICAO airport designator
Station Type Date Time Source
KUKT METAR 2020/11/25 22:15 UTC NOAA

KUKT 252215Z AUTO 00000KT 10SM CLR 08/03 A3022 RMK A01


Station Type Date Time Source
KUKT Decoded METAR 2020/11/25 22:15 UTC NOAA

Quakertown, Quakertown Airport, PA, United States (KUKT) 40-26-06N 075-22-54W
Nov 25, 2020 - 05:15 PM EST / 2020.11.25 2215 UTC
Wind: Calm:0
Visibility: 10 mile(s):0
Sky conditions: clear
Temperature: 46 F (8 C)
Dew Point: 37 F (3 C)
Relative Humidity: 70%
Pressure (altimeter): 30.22 in. Hg (1023 hPa)
ob: KUKT 252215Z AUTO 00000KT 10SM CLR 08/03 A3022 RMK A01
cycle: 22

Station Type Date Time Source
KUKT TAF UTC NOAA

Error!

Example: see airport list